createdAt,value
2019-03-02T00:00:27.825Z,76.40
2019-03-02T00:03:34.846Z,82.63
2019-03-02T00:06:39.677Z,75.93
2019-03-02T00:09:44.699Z,75.03
2019-03-02T00:12:50.123Z,89.50
2019-03-02T00:15:55.568Z,76.40
2019-03-02T00:19:02.919Z,71.83
2019-03-02T00:22:07.720Z,70.60
2019-03-02T00:25:13.063Z,78.43
2019-03-02T00:28:18.702Z,74.30
2019-03-02T00:31:23.642Z,78.30
2019-03-02T00:34:28.833Z,81.43
2019-03-02T00:37:35.519Z,80.40
2019-03-02T00:40:40.624Z,80.67
2019-03-02T00:43:45.595Z,72.23
2019-03-02T00:46:50.629Z,78.27
2019-03-02T00:49:57.252Z,88.47
2019-03-02T00:53:02.491Z,75.87
2019-03-02T00:56:08.849Z,81.80
2019-03-02T00:59:14.134Z,79.63
2019-03-02T01:02:19.232Z,77.60
2019-03-02T01:05:24.421Z,72.43
2019-03-02T01:08:31.753Z,82.50
2019-03-02T01:11:36.194Z,78.67
2019-03-02T01:14:41.617Z,75.77
2019-03-02T01:17:46.797Z,80.70
2019-03-02T01:20:51.921Z,77.37
2019-03-02T01:23:59.798Z,78.17
2019-03-02T01:27:03.754Z,74.10
2019-03-02T01:30:12.073Z,83.53
2019-03-02T01:33:17.106Z,72.03
2019-03-02T01:36:22.151Z,77.17
2019-03-02T01:39:29.223Z,79.13
2019-03-02T01:42:34.010Z,71.70
2019-03-02T01:45:39.119Z,82.73
2019-03-02T01:48:44.172Z,74.63
2019-03-02T01:51:49.357Z,76.03
2019-03-02T01:54:55.823Z,77.20
2019-03-02T01:58:01.110Z,74.13
2019-03-02T02:01:06.474Z,70.53
2019-03-02T02:04:11.655Z,70.80
2019-03-02T02:07:18.034Z,69.67
2019-03-02T02:10:24.000Z,65.80
2019-03-02T02:13:29.134Z,63.10
2019-03-02T02:16:34.154Z,53.20
2019-03-02T02:19:39.653Z,54.83
2019-03-02T02:22:44.919Z,50.13
2019-03-02T02:25:49.950Z,49.93
2019-03-02T02:28:54.991Z,54.07
2019-03-02T02:32:00.091Z,51.67
2019-03-02T02:35:05.376Z,54.00
2019-03-02T02:38:11.293Z,51.27
2019-03-02T02:41:21.994Z,51.20
2019-03-02T02:44:24.037Z,49.70
2019-03-02T02:47:29.152Z,54.30
2019-03-02T02:50:34.208Z,56.17
2019-03-02T02:53:40.218Z,53.57
2019-03-02T02:56:46.140Z,51.50
2019-03-02T02:59:51.262Z,49.77
2019-03-02T03:02:56.300Z,58.07
2019-03-02T03:06:01.487Z,54.03
2019-03-02T03:09:17.921Z,51.90
2019-03-02T03:12:24.744Z,53.30
2019-03-02T03:15:36.922Z,53.23
2019-03-02T03:18:47.013Z,57.97
2019-03-02T03:21:49.523Z,58.07
2019-03-02T03:24:54.484Z,55.73
2019-03-02T03:27:59.595Z,52.23
2019-03-02T03:31:04.756Z,54.80
2019-03-02T03:34:09.848Z,58.20
2019-03-02T03:37:15.104Z,57.30
2019-03-02T03:40:25.164Z,56.00
2019-03-02T03:43:27.015Z,58.23
2019-03-02T03:46:32.049Z,53.40
2019-03-02T03:49:37.135Z,53.13
2019-03-02T03:52:43.995Z,54.17
2019-03-02T03:55:49.067Z,57.40
2019-03-02T03:58:54.193Z,50.57
2019-03-02T04:01:59.304Z,59.13
2019-03-02T04:05:08.476Z,56.90
2019-03-02T04:08:11.396Z,54.87
2019-03-02T04:11:16.499Z,51.87
2019-03-02T04:14:23.380Z,53.73
2019-03-02T04:17:28.267Z,56.33
2019-03-02T04:20:36.493Z,50.10
2019-03-02T04:23:41.600Z,53.43
2019-03-02T04:26:46.640Z,60.03
2019-03-02T04:29:55.309Z,61.03
2019-03-02T04:33:01.669Z,57.17
2019-03-02T04:36:09.424Z,62.70
2019-03-02T04:39:13.761Z,57.37
2019-03-02T04:42:18.736Z,61.47
2019-03-02T04:45:23.715Z,55.43
2019-03-02T04:48:28.811Z,62.63
2019-03-02T04:51:35.143Z,51.20
2019-03-02T04:54:40.658Z,52.33
2019-03-02T04:57:45.631Z,51.97
2019-03-02T05:00:50.615Z,56.37
2019-03-02T05:03:57.195Z,54.60
2019-03-02T05:07:02.452Z,53.93
2019-03-02T05:10:08.865Z,53.00
2019-03-02T05:13:13.903Z,55.37
2019-03-02T05:16:18.949Z,54.37
2019-03-02T05:19:29.944Z,52.30
2019-03-02T05:22:36.620Z,49.30
2019-03-02T05:25:41.739Z,54.80
2019-03-02T05:28:47.454Z,46.60
2019-03-02T05:31:52.566Z,51.00
2019-03-02T05:34:57.628Z,55.30
2019-03-02T05:38:05.578Z,42.60
2019-03-02T05:41:10.754Z,46.50
2019-03-02T05:44:15.876Z,45.60
2019-03-02T05:47:21.036Z,47.67
2019-03-02T05:50:26.550Z,44.90
2019-03-02T05:53:32.907Z,43.30
2019-03-02T05:56:37.883Z,41.87
2019-03-02T05:59:42.876Z,47.63
2019-03-02T06:02:47.983Z,47.87
2019-03-02T06:05:53.584Z,43.10
2019-03-02T06:08:58.586Z,44.03
2019-03-02T06:12:04.841Z,45.83
2019-03-02T06:15:10.942Z,41.87
2019-03-02T06:18:15.994Z,38.60
2019-03-02T06:21:20.969Z,41.03
2019-03-02T06:24:26.839Z,43.40
2019-03-02T06:27:32.191Z,44.47
2019-03-02T06:30:40.549Z,37.73
2019-03-02T06:33:45.124Z,40.53
2019-03-02T06:36:50.563Z,38.93
2019-03-02T06:39:56.308Z,39.50
2019-03-02T06:43:02.014Z,34.97
2019-03-02T06:46:07.200Z,36.37
2019-03-02T06:49:12.644Z,36.17
2019-03-02T06:52:19.157Z,39.67
2019-03-02T06:55:24.709Z,42.40
2019-03-02T06:58:30.497Z,36.50
2019-03-02T07:01:35.519Z,35.60
2019-03-02T07:04:43.038Z,40.63
2019-03-02T07:07:48.142Z,40.80
2019-03-02T07:10:54.503Z,37.47
2019-03-02T07:13:59.891Z,32.20
2019-03-02T07:17:04.978Z,36.60
2019-03-02T07:20:15.954Z,36.93
2019-03-02T07:23:21.120Z,33.90
2019-03-02T07:26:26.150Z,42.30
2019-03-02T07:29:32.027Z,35.73
2019-03-02T07:32:37.315Z,38.20
2019-03-02T07:35:42.302Z,38.60
2019-03-02T07:38:47.248Z,50.53
2019-03-02T07:41:54.205Z,34.37
2019-03-02T07:44:59.386Z,35.27
2019-03-02T07:48:04.691Z,38.80
2019-03-02T07:51:09.731Z,31.23
2019-03-02T07:54:15.751Z,38.80
2019-03-02T07:57:20.718Z,37.03
2019-03-02T08:00:25.827Z,30.57
2019-03-02T08:03:30.956Z,34.33
2019-03-02T08:06:36.145Z,32.87
2019-03-02T08:09:41.171Z,35.90
2019-03-02T08:12:46.210Z,39.50
2019-03-02T08:15:51.337Z,35.47
2019-03-02T08:18:56.555Z,33.10
2019-03-02T08:22:01.677Z,36.27
2019-03-02T08:25:07.847Z,35.37
2019-03-02T08:28:13.039Z,31.67
2019-03-02T08:31:18.218Z,36.37
2019-03-02T08:34:23.163Z,39.80
2019-03-02T08:37:29.793Z,29.90
2019-03-02T08:40:34.967Z,34.93
2019-03-02T08:43:40.035Z,34.10
2019-03-02T08:46:45.078Z,32.60
2019-03-02T08:49:50.031Z,31.67
2019-03-02T08:52:55.130Z,26.80
2019-03-02T08:56:00.172Z,28.03
2019-03-02T08:59:05.278Z,26.70
2019-03-02T09:02:10.398Z,29.23
2019-03-02T09:05:15.662Z,27.10
2019-03-02T09:08:20.771Z,25.77
2019-03-02T09:11:25.815Z,26.70
2019-03-02T09:14:30.855Z,26.13
2019-03-02T09:17:35.987Z,23.63
2019-03-02T09:20:40.960Z,24.00
2019-03-02T09:23:46.019Z,26.87
2019-03-02T09:26:51.136Z,27.50
2019-03-02T09:29:59.034Z,27.47
2019-03-02T09:33:02.883Z,27.30
2019-03-02T09:36:07.899Z,26.30
2019-03-02T09:39:14.522Z,26.60
2019-03-02T09:42:19.563Z,27.77
2019-03-02T09:45:24.658Z,30.70
2019-03-02T09:48:29.685Z,26.57
2019-03-02T09:51:34.645Z,28.40
2019-03-02T09:54:39.809Z,30.17
2019-03-02T09:57:47.539Z,29.17
2019-03-02T10:00:51.708Z,33.43
2019-03-02T10:03:58.792Z,26.33
2019-03-02T10:07:04.345Z,33.27
2019-03-02T10:10:11.094Z,30.47
2019-03-02T10:13:16.141Z,32.00
2019-03-02T10:16:21.247Z,30.03
2019-03-02T10:19:28.922Z,34.80
2019-03-02T10:22:35.202Z,37.90
2019-03-02T10:25:39.895Z,34.33
2019-03-02T10:28:44.895Z,37.00
2019-03-02T10:31:49.868Z,34.90
2019-03-02T10:34:54.828Z,39.03
2019-03-02T10:37:59.859Z,35.03
2019-03-02T10:41:04.967Z,40.93
2019-03-02T10:44:10.083Z,38.23
2019-03-02T10:47:15.207Z,39.17
2019-03-02T10:50:23.270Z,45.87
2019-03-02T10:53:28.178Z,44.50
2019-03-02T10:56:33.354Z,45.83
2019-03-02T10:59:38.397Z,46.47
2019-03-02T11:02:43.512Z,46.53
2019-03-02T11:06:04.698Z,42.23
2019-03-02T11:09:30.456Z,42.27
2019-03-02T11:13:05.283Z,41.60
2019-03-02T11:16:21.879Z,43.27
2019-03-02T11:19:47.410Z,39.07
2019-03-02T11:23:15.719Z,40.07
2019-03-02T11:26:43.666Z,38.43
2019-03-02T11:29:57.147Z,36.07
2019-03-02T11:33:15.477Z,38.80
2019-03-02T11:36:34.928Z,40.83
2019-03-02T11:39:55.247Z,40.90
2019-03-02T11:43:36.739Z,36.77
2019-03-02T11:46:53.746Z,36.23
2019-03-02T11:50:23.901Z,37.17
2019-03-02T11:53:53.785Z,34.10
2019-03-02T11:57:17.794Z,32.67
2019-03-02T12:00:57.907Z,32.73
2019-03-02T12:04:23.583Z,38.70
2019-03-02T12:08:02.564Z,37.17
2019-03-02T12:11:22.783Z,39.13
2019-03-02T12:14:35.172Z,32.27
2019-03-02T12:17:50.016Z,41.67
2019-03-02T12:21:23.226Z,32.50
2019-03-02T12:24:45.828Z,36.30
2019-03-02T12:28:09.072Z,33.23
2019-03-02T12:31:23.544Z,33.40
2019-03-02T12:34:46.394Z,33.50
2019-03-02T12:38:11.672Z,27.83
2019-03-02T12:41:34.760Z,30.10
2019-03-02T12:44:57.873Z,36.30
2019-03-02T12:48:29.386Z,32.50
2019-03-02T12:52:02.631Z,35.03
2019-03-02T12:55:35.885Z,33.37
2019-03-02T12:59:02.844Z,33.77
2019-03-02T13:02:35.950Z,37.03
2019-03-02T13:06:03.131Z,34.20
2019-03-02T13:09:29.996Z,30.90
2019-03-02T13:12:46.126Z,30.70
2019-03-02T13:16:10.304Z,35.77
2019-03-02T13:19:31.551Z,38.13
2019-03-02T13:23:13.559Z,39.33
2019-03-02T13:26:28.478Z,38.10
2019-03-02T13:29:53.303Z,34.30
2019-03-02T13:33:19.701Z,35.10
2019-03-02T13:36:46.594Z,35.33
2019-03-02T13:40:19.637Z,38.30
2019-03-02T13:43:35.184Z,33.60
2019-03-02T13:46:57.983Z,38.47
2019-03-02T13:50:31.235Z,36.50
2019-03-02T13:54:04.140Z,38.50
2019-03-02T13:57:19.682Z,29.57
2019-03-02T14:00:44.538Z,36.60
2019-03-02T14:04:07.392Z,32.77
2019-03-02T14:07:42.398Z,30.53
2019-03-02T14:11:07.129Z,30.70
2019-03-02T14:14:34.254Z,38.93
2019-03-02T14:17:58.673Z,35.63
2019-03-02T14:21:21.254Z,35.10
2019-03-02T14:24:37.541Z,37.60
2019-03-02T14:28:01.932Z,34.10
2019-03-02T14:31:20.143Z,37.83
2019-03-02T14:34:43.846Z,36.47
2019-03-02T14:38:05.278Z,37.47
2019-03-02T14:41:42.091Z,37.90
2019-03-02T14:45:01.106Z,36.20
2019-03-02T14:48:28.403Z,42.23
2019-03-02T14:51:48.179Z,35.20
2019-03-02T14:55:07.568Z,38.73
2019-03-02T14:58:38.703Z,31.87
2019-03-02T15:02:01.508Z,31.90
2019-03-02T15:05:11.959Z,33.07
2019-03-02T15:08:37.433Z,31.60
2019-03-02T15:11:58.544Z,36.47
2019-03-02T15:15:16.501Z,29.57
2019-03-02T15:18:43.383Z,36.67
2019-03-02T15:22:03.837Z,35.80
2019-03-02T15:25:29.724Z,33.40
2019-03-02T15:28:45.368Z,32.37
2019-03-02T15:31:56.566Z,31.10
2019-03-02T15:35:18.020Z,34.70
2019-03-02T15:38:48.046Z,28.73
2019-03-02T15:42:18.006Z,30.17
2019-03-02T15:45:43.901Z,28.33
2019-03-02T15:48:54.499Z,33.77
2019-03-02T15:52:17.459Z,34.03
2019-03-02T15:55:41.301Z,31.63
2019-03-02T15:58:59.586Z,32.57
2019-03-02T16:02:13.927Z,33.40
2019-03-02T16:05:37.967Z,28.93
2019-03-02T16:09:17.046Z,29.70
2019-03-02T16:12:35.757Z,24.87
2019-03-02T16:16:00.036Z,32.20
2019-03-02T16:19:29.098Z,29.73
2019-03-02T16:22:53.111Z,27.57
2019-03-02T16:26:13.105Z,26.93
2019-03-02T16:29:42.667Z,30.03
2019-03-02T16:33:12.946Z,31.53
2019-03-02T16:36:36.246Z,28.20
2019-03-02T16:40:03.131Z,27.63
2019-03-02T16:43:15.408Z,28.37
2019-03-02T16:46:27.243Z,26.50
2019-03-02T16:49:50.159Z,25.83
2019-03-02T16:53:29.715Z,24.83
2019-03-02T16:56:57.584Z,27.40
2019-03-02T17:00:21.430Z,27.37
2019-03-02T17:03:39.068Z,26.53
2019-03-02T17:07:00.332Z,25.47
2019-03-02T17:10:29.048Z,26.87
2019-03-02T17:13:40.033Z,29.10
2019-03-02T17:17:02.817Z,26.87
2019-03-02T17:20:24.552Z,29.30
2019-03-02T17:23:47.586Z,28.77
2019-03-02T17:27:11.698Z,28.90
2019-03-02T17:30:36.657Z,30.60
2019-03-02T17:34:03.563Z,29.63
2019-03-02T17:37:35.880Z,30.40
2019-03-02T17:41:07.758Z,28.80
2019-03-02T17:44:23.569Z,31.37
2019-03-02T17:47:48.097Z,28.17
2019-03-02T17:51:18.459Z,29.80
2019-03-02T17:54:46.536Z,32.80
2019-03-02T17:58:09.863Z,28.00
2019-03-02T18:01:33.879Z,27.20
2019-03-02T18:04:47.827Z,27.00
2019-03-02T18:08:08.795Z,30.30
2019-03-02T18:11:32.648Z,28.63
2019-03-02T18:14:56.670Z,31.33
2019-03-02T18:18:00.972Z,25.67
2019-03-02T18:21:06.052Z,26.90
2019-03-02T18:24:11.056Z,28.30
2019-03-02T18:27:16.107Z,29.40
2019-03-02T18:30:21.569Z,28.27
2019-03-02T18:33:40.007Z,28.17
2019-03-02T18:36:49.965Z,27.03
2019-03-02T18:39:53.778Z,34.50
2019-03-02T18:42:58.907Z,29.43
2019-03-02T18:46:04.056Z,29.43
2019-03-02T18:49:18.624Z,27.93
2019-03-02T18:52:39.066Z,30.00
2019-03-02T18:55:44.268Z,29.80
2019-03-02T18:58:49.383Z,28.93
2019-03-02T19:01:54.356Z,28.73
2019-03-02T19:04:59.407Z,36.20
2019-03-02T19:08:05.059Z,34.83
2019-03-02T19:11:10.629Z,29.83
2019-03-02T19:14:16.905Z,28.67
2019-03-02T19:17:24.508Z,29.20
2019-03-02T19:20:29.511Z,32.17
2019-03-02T19:23:34.663Z,29.53
2019-03-02T19:26:39.841Z,31.40
2019-03-02T19:29:44.802Z,31.70
2019-03-02T19:32:50.081Z,28.70
2019-03-02T19:35:55.184Z,26.50
2019-03-02T19:39:00.568Z,26.73
2019-03-02T19:42:05.813Z,27.97
2019-03-02T19:45:11.133Z,29.27
2019-03-02T19:48:16.329Z,28.60
2019-03-02T19:51:21.350Z,30.67
2019-03-02T19:54:26.520Z,30.80
2019-03-02T19:57:31.706Z,28.87
2019-03-02T20:00:36.969Z,27.47
2019-03-02T20:03:42.052Z,30.10
2019-03-02T20:06:47.322Z,31.47
2019-03-02T20:09:52.473Z,33.50
2019-03-02T20:12:57.691Z,32.57
2019-03-02T20:16:03.099Z,31.43
2019-03-02T20:19:08.356Z,27.03
2019-03-02T20:22:13.398Z,25.10
2019-03-02T20:25:18.537Z,29.77
2019-03-02T20:28:23.581Z,30.00
2019-03-02T20:31:28.750Z,30.40
2019-03-02T20:34:33.815Z,32.30
2019-03-02T20:37:39.003Z,26.23
2019-03-02T20:40:44.121Z,27.83
2019-03-02T20:43:49.171Z,24.47
2019-03-02T20:46:54.444Z,25.83
2019-03-02T20:49:59.556Z,29.73
2019-03-02T20:53:04.674Z,28.20
2019-03-02T20:56:09.815Z,33.23
2019-03-02T20:59:14.790Z,29.83
2019-03-02T21:02:19.801Z,28.77
2019-03-02T21:05:25.111Z,25.60
2019-03-02T21:08:30.101Z,33.33
2019-03-02T21:11:35.157Z,37.63
2019-03-02T21:14:40.369Z,31.13
2019-03-02T21:17:45.432Z,29.40
2019-03-02T21:20:50.843Z,25.30
2019-03-02T21:23:58.065Z,27.30
2019-03-02T21:27:03.198Z,24.63
2019-03-02T21:30:10.764Z,23.67
2019-03-02T21:33:16.035Z,25.20
2019-03-02T21:36:23.745Z,22.10
2019-03-02T21:39:28.871Z,28.17
2019-03-02T21:42:33.996Z,17.60
2019-03-02T21:45:39.159Z,17.47
2019-03-02T21:48:44.348Z,15.10
2019-03-02T21:51:49.722Z,15.03
2019-03-02T21:54:54.865Z,15.93
2019-03-02T21:57:59.937Z,15.77
2019-03-02T22:01:05.068Z,15.80
2019-03-02T22:04:10.042Z,16.40
2019-03-02T22:07:15.030Z,16.67
2019-03-02T22:10:26.081Z,12.17
2019-03-02T22:13:31.130Z,15.57
2019-03-02T22:16:36.182Z,11.77
2019-03-02T22:19:41.541Z,13.57
2019-03-02T22:22:46.584Z,10.93
2019-03-02T22:25:51.631Z,12.77
2019-03-02T22:28:56.747Z,12.20
2019-03-02T22:32:02.079Z,10.50
2019-03-02T22:35:07.347Z,13.07
2019-03-02T22:38:12.524Z,11.73
2019-03-02T22:41:17.743Z,17.50
2019-03-02T22:44:22.871Z,12.70
2019-03-02T22:47:27.853Z,16.50
2019-03-02T22:50:32.983Z,9.43
2019-03-02T22:53:38.005Z,15.47
2019-03-02T22:56:43.050Z,14.83
2019-03-02T23:00:37.650Z,12.20
2019-03-02T23:03:41.325Z,12.43
2019-03-02T23:06:46.502Z,10.33
2019-03-02T23:09:51.472Z,9.50
2019-03-02T23:12:56.655Z,8.63
2019-03-02T23:16:01.870Z,8.90
2019-03-02T23:19:06.959Z,7.93
2019-03-02T23:22:12.080Z,12.13
2019-03-02T23:25:17.126Z,7.97
2019-03-02T23:28:22.169Z,10.90
2019-03-02T23:31:27.276Z,8.80
2019-03-02T23:34:37.126Z,7.30
2019-03-02T23:37:39.107Z,9.83
2019-03-02T23:40:44.224Z,7.60
2019-03-02T23:43:49.173Z,7.13
2019-03-02T23:46:54.289Z,7.80
2019-03-02T23:49:59.351Z,8.87
2019-03-02T23:53:04.535Z,8.27
2019-03-02T23:56:09.633Z,9.27
2019-03-02T23:59:14.596Z,7.83
